sensor_id;sensor_type;location;lat;lon;timestamp;P1;durP1;ratioP1;P2;durP2;ratioP2
1679;SDS011;838;51.794;12.258;2023-02-15T00:01:38;31.63;;;19.63;;
1679;SDS011;838;51.794;12.258;2023-02-15T00:04:05;33.50;;;18.20;;
1679;SDS011;838;51.794;12.258;2023-02-15T00:06:32;34.97;;;20.90;;
1679;SDS011;838;51.794;12.258;2023-02-15T00:08:58;39.40;;;20.50;;
1679;SDS011;838;51.794;12.258;2023-02-15T00:11:23;40.70;;;22.53;;
1679;SDS011;838;51.794;12.258;2023-02-15T00:14:09;39.63;;;20.60;;
1679;SDS011;838;51.794;12.258;2023-02-15T00:16:37;42.50;;;21.97;;
1679;SDS011;838;51.794;12.258;2023-02-15T00:19:04;44.30;;;22.33;;
1679;SDS011;838;51.794;12.258;2023-02-15T00:21:31;43.20;;;24.60;;
1679;SDS011;838;51.794;12.258;2023-02-15T00:23:58;40.30;;;22.80;;
1679;SDS011;838;51.794;12.258;2023-02-15T00:26:25;49.67;;;23.07;;
1679;SDS011;838;51.794;12.258;2023-02-15T00:28:51;47.00;;;23.07;;
1679;SDS011;838;51.794;12.258;2023-02-15T00:31:17;44.60;;;24.50;;
1679;SDS011;838;51.794;12.258;2023-02-15T00:33:43;43.00;;;22.77;;
1679;SDS011;838;51.794;12.258;2023-02-15T00:36:11;48.73;;;25.13;;
1679;SDS011;838;51.794;12.258;2023-02-15T00:38:38;42.13;;;24.10;;
1679;SDS011;838;51.794;12.258;2023-02-15T00:41:04;43.90;;;23.80;;
1679;SDS011;838;51.794;12.258;2023-02-15T00:43:32;45.30;;;23.80;;
1679;SDS011;838;51.794;12.258;2023-02-15T00:45:59;36.50;;;19.20;;
1679;SDS011;838;51.794;12.258;2023-02-15T00:48:25;37.83;;;21.80;;
1679;SDS011;838;51.794;12.258;2023-02-15T00:50:52;42.77;;;22.33;;
1679;SDS011;838;51.794;12.258;2023-02-15T00:53:21;38.93;;;21.57;;
1679;SDS011;838;51.794;12.258;2023-02-15T00:55:47;41.50;;;22.27;;
1679;SDS011;838;51.794;12.258;2023-02-15T00:58:13;33.13;;;20.10;;
1679;SDS011;838;51.794;12.258;2023-02-15T01:00:39;37.43;;;19.87;;
1679;SDS011;838;51.794;12.258;2023-02-15T01:03:07;38.47;;;18.97;;
1679;SDS011;838;51.794;12.258;2023-02-15T01:05:33;40.40;;;22.20;;
1679;SDS011;838;51.794;12.258;2023-02-15T01:07:59;34.30;;;19.43;;
1679;SDS011;838;51.794;12.258;2023-02-15T01:10:25;38.03;;;20.60;;
1679;SDS011;838;51.794;12.258;2023-02-15T01:12:51;37.20;;;20.17;;
1679;SDS011;838;51.794;12.258;2023-02-15T01:15:18;33.90;;;20.30;;
1679;SDS011;838;51.794;12.258;2023-02-15T01:17:44;36.00;;;20.97;;
1679;SDS011;838;51.794;12.258;2023-02-15T01:20:16;33.73;;;21.83;;
1679;SDS011;838;51.794;12.258;2023-02-15T01:22:43;40.20;;;22.43;;
1679;SDS011;838;51.794;12.258;2023-02-15T01:25:08;36.87;;;20.00;;
1679;SDS011;838;51.794;12.258;2023-02-15T01:27:34;36.03;;;20.60;;
1679;SDS011;838;51.794;12.258;2023-02-15T01:30:00;38.43;;;21.10;;
1679;SDS011;838;51.794;12.258;2023-02-15T01:32:25;42.40;;;21.83;;
1679;SDS011;838;51.794;12.258;2023-02-15T01:34:52;39.90;;;21.73;;
1679;SDS011;838;51.794;12.258;2023-02-15T01:37:18;35.53;;;21.73;;
1679;SDS011;838;51.794;12.258;2023-02-15T01:39:43;47.23;;;22.43;;
1679;SDS011;838;51.794;12.258;2023-02-15T01:42:12;66.97;;;20.50;;
1679;SDS011;838;51.794;12.258;2023-02-15T01:47:36;57.57;;;20.37;;
1679;SDS011;838;51.794;12.258;2023-02-15T01:50:08;43.00;;;21.07;;
1679;SDS011;838;51.794;12.258;2023-02-15T01:52:35;40.33;;;20.90;;
1679;SDS011;838;51.794;12.258;2023-02-15T01:55:05;59.73;;;22.57;;
1679;SDS011;838;51.794;12.258;2023-02-15T01:57:32;92.80;;;22.67;;
1679;SDS011;838;51.794;12.258;2023-02-15T01:59:59;51.97;;;20.43;;
1679;SDS011;838;51.794;12.258;2023-02-15T02:02:30;77.67;;;22.83;;
1679;SDS011;838;51.794;12.258;2023-02-15T02:04:58;72.40;;;21.50;;
1679;SDS011;838;51.794;12.258;2023-02-15T02:07:28;73.27;;;21.60;;
1679;SDS011;838;51.794;12.258;2023-02-15T02:10:05;52.30;;;21.67;;
1679;SDS011;838;51.794;12.258;2023-02-15T02:12:34;64.77;;;20.87;;
1679;SDS011;838;51.794;12.258;2023-02-15T02:15:02;46.97;;;21.03;;
1679;SDS011;838;51.794;12.258;2023-02-15T02:37:05;67.13;;;20.87;;
1679;SDS011;838;51.794;12.258;2023-02-15T02:39:39;67.20;;;20.90;;
1679;SDS011;838;51.794;12.258;2023-02-15T02:44:54;40.63;;;19.80;;
1679;SDS011;838;51.794;12.258;2023-02-15T02:47:38;35.67;;;19.90;;
1679;SDS011;838;51.794;12.258;2023-02-15T02:50:15;36.27;;;18.70;;
1679;SDS011;838;51.794;12.258;2023-02-15T02:52:51;31.77;;;18.30;;
1679;SDS011;838;51.794;12.258;2023-02-15T02:58:09;28.47;;;18.60;;
1679;SDS011;838;51.794;12.258;2023-02-15T03:00:40;35.07;;;20.57;;
1679;SDS011;838;51.794;12.258;2023-02-15T03:03:16;32.23;;;19.37;;
1679;SDS011;838;51.794;12.258;2023-02-15T03:05:47;25.07;;;16.53;;
1679;SDS011;838;51.794;12.258;2023-02-15T03:08:16;28.07;;;17.23;;
1679;SDS011;838;51.794;12.258;2023-02-15T03:10:46;29.00;;;17.90;;
1679;SDS011;838;51.794;12.258;2023-02-15T03:13:18;30.60;;;17.93;;
1679;SDS011;838;51.794;12.258;2023-02-15T03:15:44;26.27;;;15.73;;
1679;SDS011;838;51.794;12.258;2023-02-15T03:18:33;32.30;;;18.03;;
1679;SDS011;838;51.794;12.258;2023-02-15T03:21:05;29.43;;;17.40;;
1679;SDS011;838;51.794;12.258;2023-02-15T03:23:33;28.20;;;16.70;;
1679;SDS011;838;51.794;12.258;2023-02-15T03:26:01;31.27;;;16.73;;
1679;SDS011;838;51.794;12.258;2023-02-15T03:28:35;25.47;;;16.37;;
1679;SDS011;838;51.794;12.258;2023-02-15T03:31:06;29.40;;;17.30;;
1679;SDS011;838;51.794;12.258;2023-02-15T03:33:35;29.87;;;18.83;;
1679;SDS011;838;51.794;12.258;2023-02-15T03:36:09;30.53;;;17.93;;
1679;SDS011;838;51.794;12.258;2023-02-15T03:38:51;33.13;;;17.80;;
1679;SDS011;838;51.794;12.258;2023-02-15T03:41:32;30.33;;;17.97;;
1679;SDS011;838;51.794;12.258;2023-02-15T03:44:06;28.67;;;16.80;;
1679;SDS011;838;51.794;12.258;2023-02-15T03:47:02;26.07;;;16.20;;
1679;SDS011;838;51.794;12.258;2023-02-15T03:49:37;30.20;;;18.10;;
1679;SDS011;838;51.794;12.258;2023-02-15T03:52:08;33.30;;;17.27;;
1679;SDS011;838;51.794;12.258;2023-02-15T03:54:37;31.87;;;18.50;;
1679;SDS011;838;51.794;12.258;2023-02-15T03:57:07;26.70;;;16.87;;
1679;SDS011;838;51.794;12.258;2023-02-15T03:59:59;27.77;;;16.73;;
1679;SDS011;838;51.794;12.258;2023-02-15T04:06:00;24.40;;;15.47;;
1679;SDS011;838;51.794;12.258;2023-02-15T04:08:26;27.63;;;17.40;;
1679;SDS011;838;51.794;12.258;2023-02-15T04:11:12;27.70;;;16.90;;
1679;SDS011;838;51.794;12.258;2023-02-15T04:13:38;33.47;;;17.30;;
1679;SDS011;838;51.794;12.258;2023-02-15T04:16:04;28.43;;;18.00;;
1679;SDS011;838;51.794;12.258;2023-02-15T04:18:30;26.67;;;19.20;;
1679;SDS011;838;51.794;12.258;2023-02-15T04:21:26;26.67;;;16.00;;
1679;SDS011;838;51.794;12.258;2023-02-15T04:24:11;30.50;;;16.07;;
1679;SDS011;838;51.794;12.258;2023-02-15T04:26:57;25.53;;;14.43;;
1679;SDS011;838;51.794;12.258;2023-02-15T04:29:23;28.70;;;16.70;;
1679;SDS011;838;51.794;12.258;2023-02-15T04:31:50;27.83;;;16.60;;
1679;SDS011;838;51.794;12.258;2023-02-15T04:34:16;32.30;;;17.10;;
1679;SDS011;838;51.794;12.258;2023-02-15T04:36:42;30.80;;;17.10;;
1679;SDS011;838;51.794;12.258;2023-02-15T04:39:08;34.40;;;19.67;;
1679;SDS011;838;51.794;12.258;2023-02-15T04:41:34;35.33;;;17.90;;
1679;SDS011;838;51.794;12.258;2023-02-15T04:44:00;35.87;;;18.50;;
1679;SDS011;838;51.794;12.258;2023-02-15T04:46:27;37.00;;;19.80;;
1679;SDS011;838;51.794;12.258;2023-02-15T04:48:53;35.63;;;19.80;;
1679;SDS011;838;51.794;12.258;2023-02-15T04:51:19;53.53;;;19.10;;
1679;SDS011;838;51.794;12.258;2023-02-15T04:53:45;39.67;;;20.70;;
1679;SDS011;838;51.794;12.258;2023-02-15T04:56:10;43.47;;;18.80;;
1679;SDS011;838;51.794;12.258;2023-02-15T04:58:36;41.17;;;21.80;;
1679;SDS011;838;51.794;12.258;2023-02-15T05:01:05;57.57;;;23.00;;
1679;SDS011;838;51.794;12.258;2023-02-15T05:03:32;67.10;;;24.40;;
1679;SDS011;838;51.794;12.258;2023-02-15T05:05:57;46.03;;;23.40;;
1679;SDS011;838;51.794;12.258;2023-02-15T05:08:23;72.17;;;21.40;;
1679;SDS011;838;51.794;12.258;2023-02-15T05:10:49;57.33;;;19.00;;
1679;SDS011;838;51.794;12.258;2023-02-15T05:13:15;51.90;;;24.23;;
1679;SDS011;838;51.794;12.258;2023-02-15T05:15:41;57.97;;;21.90;;
1679;SDS011;838;51.794;12.258;2023-02-15T05:18:06;49.97;;;22.90;;
1679;SDS011;838;51.794;12.258;2023-02-15T05:20:32;45.40;;;20.27;;
1679;SDS011;838;51.794;12.258;2023-02-15T05:22:58;58.77;;;21.27;;
1679;SDS011;838;51.794;12.258;2023-02-15T05:25:24;61.47;;;27.10;;
1679;SDS011;838;51.794;12.258;2023-02-15T05:28:12;71.47;;;22.90;;
1679;SDS011;838;51.794;12.258;2023-02-15T05:33:24;85.80;;;27.90;;
1679;SDS011;838;51.794;12.258;2023-02-15T05:35:50;79.40;;;23.37;;
1679;SDS011;838;51.794;12.258;2023-02-15T05:38:16;75.90;;;24.67;;
1679;SDS011;838;51.794;12.258;2023-02-15T05:40:41;64.60;;;24.57;;
1679;SDS011;838;51.794;12.258;2023-02-15T05:43:07;51.00;;;21.10;;
1679;SDS011;838;51.794;12.258;2023-02-15T05:45:33;76.47;;;25.47;;
1679;SDS011;838;51.794;12.258;2023-02-15T05:47:59;54.00;;;24.03;;
1679;SDS011;838;51.794;12.258;2023-02-15T05:50:24;45.53;;;22.70;;
1679;SDS011;838;51.794;12.258;2023-02-15T05:52:51;61.30;;;22.53;;
1679;SDS011;838;51.794;12.258;2023-02-15T05:55:17;106.60;;;56.30;;
1679;SDS011;838;51.794;12.258;2023-02-15T05:57:43;69.50;;;22.40;;
1679;SDS011;838;51.794;12.258;2023-02-15T06:00:12;45.10;;;21.80;;
1679;SDS011;838;51.794;12.258;2023-02-15T06:02:38;56.73;;;22.73;;
1679;SDS011;838;51.794;12.258;2023-02-15T06:05:05;52.57;;;20.87;;
1679;SDS011;838;51.794;12.258;2023-02-15T06:07:31;57.23;;;23.57;;
1679;SDS011;838;51.794;12.258;2023-02-15T06:09:57;57.63;;;22.47;;
1679;SDS011;838;51.794;12.258;2023-02-15T06:12:23;52.00;;;23.77;;
1679;SDS011;838;51.794;12.258;2023-02-15T06:14:48;51.93;;;22.77;;
1679;SDS011;838;51.794;12.258;2023-02-15T06:17:14;41.93;;;20.53;;
1679;SDS011;838;51.794;12.258;2023-02-15T06:19:41;46.07;;;19.93;;
1679;SDS011;838;51.794;12.258;2023-02-15T06:22:07;54.53;;;22.90;;
1679;SDS011;838;51.794;12.258;2023-02-15T06:24:33;57.30;;;25.30;;
1679;SDS011;838;51.794;12.258;2023-02-15T06:26:58;53.90;;;23.30;;
1679;SDS011;838;51.794;12.258;2023-02-15T06:29:24;64.87;;;26.20;;
1679;SDS011;838;51.794;12.258;2023-02-15T06:31:50;72.17;;;23.80;;
1679;SDS011;838;51.794;12.258;2023-02-15T06:34:15;68.47;;;22.43;;
1679;SDS011;838;51.794;12.258;2023-02-15T06:36:41;47.63;;;22.23;;
1679;SDS011;838;51.794;12.258;2023-02-15T06:39:07;57.87;;;22.47;;
1679;SDS011;838;51.794;12.258;2023-02-15T06:41:33;55.00;;;23.00;;
1679;SDS011;838;51.794;12.258;2023-02-15T06:43:59;37.10;;;21.30;;
1679;SDS011;838;51.794;12.258;2023-02-15T06:46:25;61.93;;;24.20;;
1679;SDS011;838;51.794;12.258;2023-02-15T06:48:51;55.63;;;20.20;;
1679;SDS011;838;51.794;12.258;2023-02-15T06:51:16;58.53;;;22.80;;
1679;SDS011;838;51.794;12.258;2023-02-15T06:53:42;66.40;;;25.20;;
1679;SDS011;838;51.794;12.258;2023-02-15T06:56:09;55.40;;;21.10;;
1679;SDS011;838;51.794;12.258;2023-02-15T06:58:36;48.27;;;21.37;;
1679;SDS011;838;51.794;12.258;2023-02-15T07:01:03;62.07;;;23.40;;
1679;SDS011;838;51.794;12.258;2023-02-15T07:03:29;75.90;;;24.47;;
1679;SDS011;838;51.794;12.258;2023-02-15T07:05:56;55.53;;;22.77;;
1679;SDS011;838;51.794;12.258;2023-02-15T07:08:23;58.80;;;22.67;;
1679;SDS011;838;51.794;12.258;2023-02-15T07:10:53;86.67;;;23.17;;
1679;SDS011;838;51.794;12.258;2023-02-15T07:13:20;52.07;;;21.30;;
1679;SDS011;838;51.794;12.258;2023-02-15T07:15:46;72.87;;;22.70;;
1679;SDS011;838;51.794;12.258;2023-02-15T07:18:12;50.47;;;22.20;;
1679;SDS011;838;51.794;12.258;2023-02-15T07:20:39;51.97;;;22.80;;
1679;SDS011;838;51.794;12.258;2023-02-15T07:23:06;85.23;;;23.10;;
1679;SDS011;838;51.794;12.258;2023-02-15T07:25:33;60.53;;;21.70;;
1679;SDS011;838;51.794;12.258;2023-02-15T07:27:59;48.63;;;22.63;;
1679;SDS011;838;51.794;12.258;2023-02-15T07:30:26;69.57;;;24.10;;
1679;SDS011;838;51.794;12.258;2023-02-15T07:32:56;53.30;;;22.50;;
1679;SDS011;838;51.794;12.258;2023-02-15T07:35:50;76.77;;;23.07;;
1679;SDS011;838;51.794;12.258;2023-02-15T07:38:18;73.47;;;23.00;;
1679;SDS011;838;51.794;12.258;2023-02-15T07:40:44;56.20;;;21.47;;
1679;SDS011;838;51.794;12.258;2023-02-15T07:43:10;66.03;;;24.97;;
1679;SDS011;838;51.794;12.258;2023-02-15T07:45:37;72.30;;;24.07;;
1679;SDS011;838;51.794;12.258;2023-02-15T07:48:03;83.70;;;23.40;;
1679;SDS011;838;51.794;12.258;2023-02-15T07:50:30;81.43;;;25.90;;
1679;SDS011;838;51.794;12.258;2023-02-15T07:52:56;60.47;;;22.47;;
1679;SDS011;838;51.794;12.258;2023-02-15T07:55:22;56.53;;;24.40;;
1679;SDS011;838;51.794;12.258;2023-02-15T07:57:48;59.10;;;24.30;;
1679;SDS011;838;51.794;12.258;2023-02-15T08:00:16;65.10;;;24.67;;
1679;SDS011;838;51.794;12.258;2023-02-15T08:02:53;81.20;;;22.30;;
1679;SDS011;838;51.794;12.258;2023-02-15T08:05:38;58.27;;;24.40;;
1679;SDS011;838;51.794;12.258;2023-02-15T08:08:06;96.50;;;24.73;;
1679;SDS011;838;51.794;12.258;2023-02-15T08:10:32;75.37;;;24.53;;
1679;SDS011;838;51.794;12.258;2023-02-15T08:13:17;58.90;;;21.70;;
1679;SDS011;838;51.794;12.258;2023-02-15T08:15:49;65.03;;;22.60;;
1679;SDS011;838;51.794;12.258;2023-02-15T08:18:15;36.77;;;19.70;;
1679;SDS011;838;51.794;12.258;2023-02-15T08:20:41;58.37;;;23.60;;
1679;SDS011;838;51.794;12.258;2023-02-15T08:23:06;66.17;;;25.10;;
1679;SDS011;838;51.794;12.258;2023-02-15T08:25:32;68.93;;;23.23;;
1679;SDS011;838;51.794;12.258;2023-02-15T08:27:58;71.93;;;22.57;;
1679;SDS011;838;51.794;12.258;2023-02-15T08:30:24;69.73;;;21.93;;
1679;SDS011;838;51.794;12.258;2023-02-15T08:32:49;50.23;;;21.57;;
1679;SDS011;838;51.794;12.258;2023-02-15T08:35:15;55.03;;;23.90;;
1679;SDS011;838;51.794;12.258;2023-02-15T08:37:41;67.43;;;23.80;;
1679;SDS011;838;51.794;12.258;2023-02-15T08:40:07;51.77;;;25.40;;
1679;SDS011;838;51.794;12.258;2023-02-15T08:42:33;72.50;;;25.17;;
1679;SDS011;838;51.794;12.258;2023-02-15T08:44:59;66.13;;;23.67;;
1679;SDS011;838;51.794;12.258;2023-02-15T08:47:25;75.13;;;26.07;;
1679;SDS011;838;51.794;12.258;2023-02-15T08:49:51;53.33;;;23.87;;
1679;SDS011;838;51.794;12.258;2023-02-15T08:52:17;44.97;;;22.73;;
1679;SDS011;838;51.794;12.258;2023-02-15T08:54:42;50.10;;;23.20;;
1679;SDS011;838;51.794;12.258;2023-02-15T08:57:08;49.23;;;23.60;;
1679;SDS011;838;51.794;12.258;2023-02-15T08:59:35;54.33;;;26.67;;
1679;SDS011;838;51.794;12.258;2023-02-15T09:02:01;50.43;;;24.40;;
1679;SDS011;838;51.794;12.258;2023-02-15T09:04:28;63.27;;;25.20;;
1679;SDS011;838;51.794;12.258;2023-02-15T09:06:54;56.57;;;23.63;;
1679;SDS011;838;51.794;12.258;2023-02-15T09:09:20;49.37;;;23.13;;
1679;SDS011;838;51.794;12.258;2023-02-15T09:11:47;49.93;;;23.67;;
1679;SDS011;838;51.794;12.258;2023-02-15T09:14:16;54.43;;;24.30;;
1679;SDS011;838;51.794;12.258;2023-02-15T09:16:45;48.23;;;22.47;;
1679;SDS011;838;51.794;12.258;2023-02-15T09:19:13;49.00;;;23.00;;
1679;SDS011;838;51.794;12.258;2023-02-15T09:21:39;37.53;;;22.10;;
1679;SDS011;838;51.794;12.258;2023-02-15T09:24:06;42.10;;;20.73;;
1679;SDS011;838;51.794;12.258;2023-02-15T09:26:35;35.87;;;19.27;;
1679;SDS011;838;51.794;12.258;2023-02-15T09:29:03;41.13;;;21.03;;
1679;SDS011;838;51.794;12.258;2023-02-15T09:31:33;41.67;;;23.57;;
1679;SDS011;838;51.794;12.258;2023-02-15T09:34:02;36.03;;;17.50;;
1679;SDS011;838;51.794;12.258;2023-02-15T09:36:29;39.00;;;22.27;;
1679;SDS011;838;51.794;12.258;2023-02-15T09:41:59;37.30;;;19.17;;
1679;SDS011;838;51.794;12.258;2023-02-15T09:58:12;25.27;;;17.77;;
1679;SDS011;838;51.794;12.258;2023-02-15T10:17:56;25.93;;;16.40;;
1679;SDS011;838;51.794;12.258;2023-02-15T10:26:04;23.50;;;16.30;;
1679;SDS011;838;51.794;12.258;2023-02-15T10:28:51;23.47;;;15.43;;
1679;SDS011;838;51.794;12.258;2023-02-15T10:31:27;21.40;;;14.33;;
1679;SDS011;838;51.794;12.258;2023-02-15T10:34:14;20.23;;;14.47;;
1679;SDS011;838;51.794;12.258;2023-02-15T11:01:10;14.60;;;9.30;;
1679;SDS011;838;51.794;12.258;2023-02-15T11:06:27;12.33;;;9.00;;
1679;SDS011;838;51.794;12.258;2023-02-15T11:08:55;12.00;;;8.83;;
1679;SDS011;838;51.794;12.258;2023-02-15T11:14:05;9.70;;;8.23;;
1679;SDS011;838;51.794;12.258;2023-02-15T11:16:40;12.53;;;9.53;;
1679;SDS011;838;51.794;12.258;2023-02-15T11:19:28;11.93;;;8.83;;
1679;SDS011;838;51.794;12.258;2023-02-15T11:22:09;11.50;;;8.77;;
1679;SDS011;838;51.794;12.258;2023-02-15T11:24:43;12.07;;;8.00;;
1679;SDS011;838;51.794;12.258;2023-02-15T11:27:16;11.30;;;8.43;;
1679;SDS011;838;51.794;12.258;2023-02-15T11:32:28;14.50;;;8.20;;
1679;SDS011;838;51.794;12.258;2023-02-15T11:35:00;10.47;;;7.57;;
1679;SDS011;838;51.794;12.258;2023-02-15T11:40:24;16.23;;;9.80;;
1679;SDS011;838;51.794;12.258;2023-02-15T11:43:07;10.70;;;8.10;;
1679;SDS011;838;51.794;12.258;2023-02-15T11:45:48;10.43;;;7.43;;
1679;SDS011;838;51.794;12.258;2023-02-15T11:48:14;11.63;;;8.30;;
1679;SDS011;838;51.794;12.258;2023-02-15T11:50:41;12.30;;;9.00;;
1679;SDS011;838;51.794;12.258;2023-02-15T11:53:17;10.20;;;7.73;;
1679;SDS011;838;51.794;12.258;2023-02-15T11:55:47;11.20;;;8.00;;
1679;SDS011;838;51.794;12.258;2023-02-15T11:58:26;10.50;;;6.87;;
1679;SDS011;838;51.794;12.258;2023-02-15T12:01:10;11.87;;;8.00;;
1679;SDS011;838;51.794;12.258;2023-02-15T12:03:53;9.47;;;7.13;;
1679;SDS011;838;51.794;12.258;2023-02-15T12:06:24;9.63;;;6.63;;
1679;SDS011;838;51.794;12.258;2023-02-15T12:11:38;10.93;;;7.60;;
1679;SDS011;838;51.794;12.258;2023-02-15T12:14:07;9.60;;;7.10;;
1679;SDS011;838;51.794;12.258;2023-02-15T12:16:48;12.43;;;7.50;;
1679;SDS011;838;51.794;12.258;2023-02-15T12:19:23;11.20;;;7.80;;
1679;SDS011;838;51.794;12.258;2023-02-15T12:21:51;10.20;;;7.70;;
1679;SDS011;838;51.794;12.258;2023-02-15T12:24:19;11.47;;;7.60;;
1679;SDS011;838;51.794;12.258;2023-02-15T12:33:14;8.70;;;6.30;;
1679;SDS011;838;51.794;12.258;2023-02-15T12:35:40;9.53;;;6.77;;
1679;SDS011;838;51.794;12.258;2023-02-15T12:40:37;11.00;;;7.63;;
1679;SDS011;838;51.794;12.258;2023-02-15T12:43:08;8.10;;;6.47;;
1679;SDS011;838;51.794;12.258;2023-02-15T12:45:50;8.30;;;6.37;;
1679;SDS011;838;51.794;12.258;2023-02-15T12:48:17;9.30;;;6.77;;
1679;SDS011;838;51.794;12.258;2023-02-15T12:50:48;8.63;;;6.30;;
1679;SDS011;838;51.794;12.258;2023-02-15T12:55:50;7.60;;;5.77;;
1679;SDS011;838;51.794;12.258;2023-02-15T12:58:24;9.20;;;6.50;;
1679;SDS011;838;51.794;12.258;2023-02-15T13:06:17;7.50;;;5.37;;
1679;SDS011;838;51.794;12.258;2023-02-15T13:08:54;8.83;;;6.10;;
1679;SDS011;838;51.794;12.258;2023-02-15T13:11:29;7.17;;;5.70;;
1679;SDS011;838;51.794;12.258;2023-02-15T13:14:03;8.40;;;5.90;;
1679;SDS011;838;51.794;12.258;2023-02-15T13:16:44;8.87;;;6.67;;
1679;SDS011;838;51.794;12.258;2023-02-15T13:19:34;8.10;;;6.07;;
1679;SDS011;838;51.794;12.258;2023-02-15T13:22:06;9.13;;;6.23;;
1679;SDS011;838;51.794;12.258;2023-02-15T13:24:41;9.00;;;5.93;;
1679;SDS011;838;51.794;12.258;2023-02-15T13:27:16;7.70;;;6.13;;
1679;SDS011;838;51.794;12.258;2023-02-15T13:29:49;8.20;;;5.77;;
1679;SDS011;838;51.794;12.258;2023-02-15T13:32:31;9.60;;;6.30;;
1679;SDS011;838;51.794;12.258;2023-02-15T13:35:03;9.63;;;7.10;;
1679;SDS011;838;51.794;12.258;2023-02-15T13:40:14;8.27;;;6.60;;
1679;SDS011;838;51.794;12.258;2023-02-15T13:48:35;7.27;;;5.50;;
1679;SDS011;838;51.794;12.258;2023-02-15T13:56:35;7.50;;;5.60;;
1679;SDS011;838;51.794;12.258;2023-02-15T14:01:58;8.20;;;5.63;;
1679;SDS011;838;51.794;12.258;2023-02-15T14:21:21;8.83;;;6.23;;
1679;SDS011;838;51.794;12.258;2023-02-15T14:24:20;7.80;;;6.13;;
1679;SDS011;838;51.794;12.258;2023-02-15T14:26:52;9.63;;;6.27;;
1679;SDS011;838;51.794;12.258;2023-02-15T14:32:14;9.13;;;6.90;;
1679;SDS011;838;51.794;12.258;2023-02-15T14:34:48;12.17;;;7.60;;
1679;SDS011;838;51.794;12.258;2023-02-15T14:37:18;9.00;;;6.73;;
1679;SDS011;838;51.794;12.258;2023-02-15T14:46:50;9.83;;;6.83;;
1679;SDS011;838;51.794;12.258;2023-02-15T14:48:59;9.10;;;5.97;;
1679;SDS011;838;51.794;12.258;2023-02-15T15:00:23;11.03;;;5.90;;
1679;SDS011;838;51.794;12.258;2023-02-15T15:10:33;8.90;;;7.23;;
1679;SDS011;838;51.794;12.258;2023-02-15T15:13:34;9.73;;;7.10;;
1679;SDS011;838;51.794;12.258;2023-02-15T15:15:56;9.10;;;6.20;;
1679;SDS011;838;51.794;12.258;2023-02-15T15:18:44;8.20;;;6.17;;
1679;SDS011;838;51.794;12.258;2023-02-15T15:21:11;8.60;;;6.10;;
1679;SDS011;838;51.794;12.258;2023-02-15T15:32:39;9.27;;;6.00;;
1679;SDS011;838;51.794;12.258;2023-02-15T15:38:07;10.63;;;6.40;;
1679;SDS011;838;51.794;12.258;2023-02-15T15:42:01;7.80;;;5.37;;
1679;SDS011;838;51.794;12.258;2023-02-15T15:49:48;6.97;;;5.93;;
1679;SDS011;838;51.794;12.258;2023-02-15T15:54:45;9.00;;;5.87;;
1679;SDS011;838;51.794;12.258;2023-02-15T15:59:55;8.53;;;6.23;;
1679;SDS011;838;51.794;12.258;2023-02-15T16:02:24;8.93;;;6.63;;
1679;SDS011;838;51.794;12.258;2023-02-15T16:04:50;7.00;;;5.70;;
1679;SDS011;838;51.794;12.258;2023-02-15T16:12:24;7.10;;;5.53;;
1679;SDS011;838;51.794;12.258;2023-02-15T16:14:51;8.70;;;6.00;;
1679;SDS011;838;51.794;12.258;2023-02-15T16:17:28;9.70;;;5.50;;
1679;SDS011;838;51.794;12.258;2023-02-15T16:20:07;7.93;;;6.03;;
1679;SDS011;838;51.794;12.258;2023-02-15T16:22:38;7.40;;;5.53;;
1679;SDS011;838;51.794;12.258;2023-02-15T16:25:25;8.57;;;6.60;;
1679;SDS011;838;51.794;12.258;2023-02-15T16:28:05;7.97;;;5.90;;
1679;SDS011;838;51.794;12.258;2023-02-15T16:30:34;9.07;;;6.77;;
1679;SDS011;838;51.794;12.258;2023-02-15T16:35:55;9.67;;;7.70;;
1679;SDS011;838;51.794;12.258;2023-02-15T16:41:09;23.50;;;15.20;;
1679;SDS011;838;51.794;12.258;2023-02-15T16:43:36;32.23;;;20.30;;
1679;SDS011;838;51.794;12.258;2023-02-15T16:46:04;40.53;;;26.37;;
1679;SDS011;838;51.794;12.258;2023-02-15T16:48:32;42.40;;;25.00;;
1679;SDS011;838;51.794;12.258;2023-02-15T16:51:00;40.87;;;25.93;;
1679;SDS011;838;51.794;12.258;2023-02-15T16:53:27;39.40;;;30.87;;
1679;SDS011;838;51.794;12.258;2023-02-15T16:55:55;45.63;;;35.50;;
1679;SDS011;838;51.794;12.258;2023-02-15T16:58:26;26.87;;;20.30;;
1679;SDS011;838;51.794;12.258;2023-02-15T17:01:14;10.83;;;8.40;;
1679;SDS011;838;51.794;12.258;2023-02-15T17:03:41;13.90;;;9.03;;
1679;SDS011;838;51.794;12.258;2023-02-15T17:06:23;13.97;;;11.20;;
1679;SDS011;838;51.794;12.258;2023-02-15T17:08:51;14.27;;;11.87;;
1679;SDS011;838;51.794;12.258;2023-02-15T17:11:18;11.30;;;10.20;;
1679;SDS011;838;51.794;12.258;2023-02-15T17:19:20;17.53;;;15.63;;
1679;SDS011;838;51.794;12.258;2023-02-15T17:21:51;23.77;;;17.83;;
1679;SDS011;838;51.794;12.258;2023-02-15T17:24:24;16.33;;;13.70;;
1679;SDS011;838;51.794;12.258;2023-02-15T17:26:57;21.40;;;15.07;;
1679;SDS011;838;51.794;12.258;2023-02-15T17:29:34;26.93;;;16.77;;
1679;SDS011;838;51.794;12.258;2023-02-15T17:32:04;21.10;;;14.90;;
1679;SDS011;838;51.794;12.258;2023-02-15T17:34:45;20.63;;;14.57;;
1679;SDS011;838;51.794;12.258;2023-02-15T17:40:06;25.53;;;14.87;;
1679;SDS011;838;51.794;12.258;2023-02-15T17:42:45;22.90;;;16.70;;
1679;SDS011;838;51.794;12.258;2023-02-15T17:45:11;31.60;;;15.33;;
1679;SDS011;838;51.794;12.258;2023-02-15T17:47:37;34.10;;;19.07;;
1679;SDS011;838;51.794;12.258;2023-02-15T17:50:04;38.33;;;19.13;;
1679;SDS011;838;51.794;12.258;2023-02-15T17:52:32;30.33;;;17.60;;
1679;SDS011;838;51.794;12.258;2023-02-15T17:54:58;35.27;;;20.67;;
1679;SDS011;838;51.794;12.258;2023-02-15T17:57:47;31.60;;;17.47;;
1679;SDS011;838;51.794;12.258;2023-02-15T18:00:13;24.00;;;15.40;;
1679;SDS011;838;51.794;12.258;2023-02-15T18:02:58;27.47;;;15.07;;
1679;SDS011;838;51.794;12.258;2023-02-15T18:05:42;28.90;;;17.63;;
1679;SDS011;838;51.794;12.258;2023-02-15T18:08:27;27.67;;;15.40;;
1679;SDS011;838;51.794;12.258;2023-02-15T18:11:11;26.03;;;16.40;;
1679;SDS011;838;51.794;12.258;2023-02-15T18:13:56;28.90;;;17.90;;
1679;SDS011;838;51.794;12.258;2023-02-15T18:16:26;32.07;;;18.93;;
1679;SDS011;838;51.794;12.258;2023-02-15T18:18:57;32.00;;;17.97;;
1679;SDS011;838;51.794;12.258;2023-02-15T18:21:23;24.07;;;15.90;;
1679;SDS011;838;51.794;12.258;2023-02-15T18:23:49;26.30;;;13.87;;
1679;SDS011;838;51.794;12.258;2023-02-15T18:26:16;38.27;;;20.80;;
1679;SDS011;838;51.794;12.258;2023-02-15T18:28:45;21.77;;;13.87;;
1679;SDS011;838;51.794;12.258;2023-02-15T18:31:11;28.00;;;15.83;;
1679;SDS011;838;51.794;12.258;2023-02-15T18:33:51;24.73;;;15.07;;
1679;SDS011;838;51.794;12.258;2023-02-15T18:36:21;20.33;;;11.53;;
1679;SDS011;838;51.794;12.258;2023-02-15T18:38:52;22.80;;;13.10;;
1679;SDS011;838;51.794;12.258;2023-02-15T18:41:19;32.20;;;17.63;;
1679;SDS011;838;51.794;12.258;2023-02-15T18:43:46;25.13;;;13.13;;
1679;SDS011;838;51.794;12.258;2023-02-15T18:46:13;20.47;;;13.80;;
1679;SDS011;838;51.794;12.258;2023-02-15T18:48:39;33.60;;;18.43;;
1679;SDS011;838;51.794;12.258;2023-02-15T18:51:07;33.50;;;16.33;;
1679;SDS011;838;51.794;12.258;2023-02-15T18:53:48;36.13;;;21.37;;
1679;SDS011;838;51.794;12.258;2023-02-15T18:56:17;39.73;;;20.87;;
1679;SDS011;838;51.794;12.258;2023-02-15T18:58:45;26.33;;;17.17;;
1679;SDS011;838;51.794;12.258;2023-02-15T19:01:15;23.30;;;16.47;;
1679;SDS011;838;51.794;12.258;2023-02-15T19:03:43;23.90;;;16.40;;